METAR Formatted Surface Weather Observation
Issued by NWS

Home | Current Version | Previous Version | Text Only | Print | Product List | Glossary On
Versions: 1 2 3 4 5 6 7
000
SAUS46 KSEW 161703
MTRSMP
METAR KSMP 161656Z AUTO 03003KT 10SM CLR 20/02 A2999 RMK AO2 SLP124
T02000022 $



USA.gov is the U.S. government's official web portal to all federal, state and local government web resources and services.